sensor_id;sensor_type;location;lat;lon;timestamp;P1;durP1;ratioP1;P2;durP2;ratioP2
59756;SDS011;45631;51.962;5.974;2023-05-16T00:01:41;11.05;;;2.40;;
59756;SDS011;45631;51.962;5.974;2023-05-16T00:04:09;16.40;;;2.75;;
59756;SDS011;45631;51.962;5.974;2023-05-16T00:06:38;13.68;;;2.67;;
59756;SDS011;45631;51.962;5.974;2023-05-16T00:09:06;15.50;;;2.20;;
59756;SDS011;45631;51.962;5.974;2023-05-16T00:11:34;13.15;;;2.80;;
59756;SDS011;45631;51.962;5.974;2023-05-16T00:14:02;11.55;;;2.33;;
59756;SDS011;45631;51.962;5.974;2023-05-16T00:16:32;11.95;;;2.53;;
59756;SDS011;45631;51.962;5.974;2023-05-16T00:19:02;12.10;;;2.55;;
59756;SDS011;45631;51.962;5.974;2023-05-16T00:21:30;12.10;;;2.00;;
59756;SDS011;45631;51.962;5.974;2023-05-16T00:23:59;12.48;;;2.03;;
59756;SDS011;45631;51.962;5.974;2023-05-16T00:26:27;13.20;;;2.17;;
59756;SDS011;45631;51.962;5.974;2023-05-16T00:28:55;19.15;;;2.40;;
59756;SDS011;45631;51.962;5.974;2023-05-16T00:31:23;13.52;;;2.40;;
59756;SDS011;45631;51.962;5.974;2023-05-16T00:33:52;15.73;;;2.15;;
59756;SDS011;45631;51.962;5.974;2023-05-16T00:36:21;17.75;;;2.58;;
59756;SDS011;45631;51.962;5.974;2023-05-16T00:38:50;11.45;;;2.15;;
59756;SDS011;45631;51.962;5.974;2023-05-16T00:41:18;10.13;;;2.88;;
59756;SDS011;45631;51.962;5.974;2023-05-16T00:43:47;12.82;;;2.00;;
59756;SDS011;45631;51.962;5.974;2023-05-16T00:46:15;11.50;;;2.25;;
59756;SDS011;45631;51.962;5.974;2023-05-16T00:48:43;10.20;;;2.30;;
59756;SDS011;45631;51.962;5.974;2023-05-16T00:51:13;12.98;;;2.00;;
59756;SDS011;45631;51.962;5.974;2023-05-16T00:53:42;13.00;;;2.65;;
59756;SDS011;45631;51.962;5.974;2023-05-16T00:56:13;12.35;;;1.88;;
59756;SDS011;45631;51.962;5.974;2023-05-16T00:58:41;14.93;;;2.67;;
59756;SDS011;45631;51.962;5.974;2023-05-16T01:01:09;12.82;;;1.90;;
59756;SDS011;45631;51.962;5.974;2023-05-16T01:03:37;14.90;;;1.95;;
59756;SDS011;45631;51.962;5.974;2023-05-16T01:06:06;13.23;;;2.40;;
59756;SDS011;45631;51.962;5.974;2023-05-16T01:08:35;12.73;;;1.60;;
59756;SDS011;45631;51.962;5.974;2023-05-16T01:11:07;9.60;;;1.63;;
59756;SDS011;45631;51.962;5.974;2023-05-16T01:13:46;10.55;;;1.80;;
59756;SDS011;45631;51.962;5.974;2023-05-16T01:16:25;11.73;;;2.03;;
59756;SDS011;45631;51.962;5.974;2023-05-16T01:19:00;14.48;;;2.25;;
59756;SDS011;45631;51.962;5.974;2023-05-16T01:21:38;9.52;;;2.13;;
59756;SDS011;45631;51.962;5.974;2023-05-16T01:24:14;13.70;;;2.03;;
59756;SDS011;45631;51.962;5.974;2023-05-16T01:26:51;17.88;;;1.88;;
59756;SDS011;45631;51.962;5.974;2023-05-16T01:29:19;12.18;;;2.10;;
59756;SDS011;45631;51.962;5.974;2023-05-16T01:31:47;13.07;;;1.70;;
59756;SDS011;45631;51.962;5.974;2023-05-16T01:34:16;9.35;;;1.70;;
59756;SDS011;45631;51.962;5.974;2023-05-16T01:36:47;11.07;;;1.60;;
59756;SDS011;45631;51.962;5.974;2023-05-16T01:39:19;13.13;;;2.38;;
59756;SDS011;45631;51.962;5.974;2023-05-16T01:41:57;9.82;;;2.42;;
59756;SDS011;45631;51.962;5.974;2023-05-16T01:44:30;12.07;;;2.08;;
59756;SDS011;45631;51.962;5.974;2023-05-16T01:47:02;16.83;;;2.35;;
59756;SDS011;45631;51.962;5.974;2023-05-16T01:49:38;12.95;;;2.22;;
59756;SDS011;45631;51.962;5.974;2023-05-16T01:52:12;11.00;;;2.25;;
59756;SDS011;45631;51.962;5.974;2023-05-16T01:54:46;10.95;;;1.90;;
59756;SDS011;45631;51.962;5.974;2023-05-16T01:57:17;11.00;;;1.90;;
59756;SDS011;45631;51.962;5.974;2023-05-16T01:59:48;10.07;;;1.95;;
59756;SDS011;45631;51.962;5.974;2023-05-16T02:02:17;8.93;;;1.60;;
59756;SDS011;45631;51.962;5.974;2023-05-16T02:04:45;14.45;;;1.80;;
59756;SDS011;45631;51.962;5.974;2023-05-16T02:07:13;12.02;;;2.03;;
59756;SDS011;45631;51.962;5.974;2023-05-16T02:09:41;10.57;;;1.50;;
59756;SDS011;45631;51.962;5.974;2023-05-16T02:12:09;12.82;;;2.28;;
59756;SDS011;45631;51.962;5.974;2023-05-16T02:14:39;12.75;;;2.22;;
59756;SDS011;45631;51.962;5.974;2023-05-16T02:17:07;8.18;;;1.65;;
59756;SDS011;45631;51.962;5.974;2023-05-16T02:19:36;18.00;;;2.45;;
59756;SDS011;45631;51.962;5.974;2023-05-16T02:22:04;11.18;;;2.05;;
59756;SDS011;45631;51.962;5.974;2023-05-16T02:24:32;12.45;;;1.65;;
59756;SDS011;45631;51.962;5.974;2023-05-16T02:27:01;13.52;;;1.65;;
59756;SDS011;45631;51.962;5.974;2023-05-16T02:29:29;13.40;;;2.10;;
59756;SDS011;45631;51.962;5.974;2023-05-16T02:31:58;15.32;;;2.13;;
59756;SDS011;45631;51.962;5.974;2023-05-16T02:34:27;14.50;;;2.15;;
59756;SDS011;45631;51.962;5.974;2023-05-16T02:36:55;10.77;;;1.80;;
59756;SDS011;45631;51.962;5.974;2023-05-16T02:39:23;12.80;;;2.17;;
59756;SDS011;45631;51.962;5.974;2023-05-16T02:41:51;14.80;;;2.30;;
59756;SDS011;45631;51.962;5.974;2023-05-16T02:44:20;13.40;;;2.00;;
59756;SDS011;45631;51.962;5.974;2023-05-16T02:46:48;11.80;;;2.15;;
59756;SDS011;45631;51.962;5.974;2023-05-16T02:49:18;13.10;;;1.70;;
59756;SDS011;45631;51.962;5.974;2023-05-16T02:51:46;10.82;;;1.73;;
59756;SDS011;45631;51.962;5.974;2023-05-16T02:54:15;12.02;;;2.33;;
59756;SDS011;45631;51.962;5.974;2023-05-16T02:56:43;12.80;;;1.83;;
59756;SDS011;45631;51.962;5.974;2023-05-16T02:59:11;12.32;;;1.67;;
59756;SDS011;45631;51.962;5.974;2023-05-16T03:01:40;12.57;;;1.75;;
59756;SDS011;45631;51.962;5.974;2023-05-16T03:04:08;13.30;;;1.70;;
59756;SDS011;45631;51.962;5.974;2023-05-16T03:06:37;9.82;;;1.60;;
59756;SDS011;45631;51.962;5.974;2023-05-16T03:09:08;12.65;;;2.30;;
59756;SDS011;45631;51.962;5.974;2023-05-16T03:11:36;8.90;;;1.63;;
59756;SDS011;45631;51.962;5.974;2023-05-16T03:14:05;9.13;;;1.95;;
59756;SDS011;45631;51.962;5.974;2023-05-16T03:16:33;12.77;;;2.22;;
59756;SDS011;45631;51.962;5.974;2023-05-16T03:19:04;12.00;;;1.95;;
59756;SDS011;45631;51.962;5.974;2023-05-16T03:21:32;9.50;;;1.70;;
59756;SDS011;45631;51.962;5.974;2023-05-16T03:24:02;14.70;;;2.28;;
59756;SDS011;45631;51.962;5.974;2023-05-16T03:26:31;11.73;;;1.67;;
59756;SDS011;45631;51.962;5.974;2023-05-16T03:28:59;14.93;;;2.42;;
59756;SDS011;45631;51.962;5.974;2023-05-16T03:31:31;15.82;;;2.63;;
59756;SDS011;45631;51.962;5.974;2023-05-16T03:34:00;13.57;;;2.22;;
59756;SDS011;45631;51.962;5.974;2023-05-16T03:36:28;8.93;;;1.70;;
59756;SDS011;45631;51.962;5.974;2023-05-16T03:38:57;7.72;;;1.75;;
59756;SDS011;45631;51.962;5.974;2023-05-16T03:41:26;11.65;;;2.08;;
59756;SDS011;45631;51.962;5.974;2023-05-16T03:43:54;14.00;;;2.42;;
59756;SDS011;45631;51.962;5.974;2023-05-16T03:46:22;10.25;;;1.90;;
59756;SDS011;45631;51.962;5.974;2023-05-16T03:48:51;12.07;;;2.15;;
59756;SDS011;45631;51.962;5.974;2023-05-16T03:51:19;11.93;;;1.60;;
59756;SDS011;45631;51.962;5.974;2023-05-16T03:53:47;10.35;;;1.88;;
59756;SDS011;45631;51.962;5.974;2023-05-16T03:56:16;14.02;;;1.67;;
59756;SDS011;45631;51.962;5.974;2023-05-16T03:58:45;11.38;;;1.90;;
59756;SDS011;45631;51.962;5.974;2023-05-16T04:01:13;11.95;;;2.13;;
59756;SDS011;45631;51.962;5.974;2023-05-16T04:03:41;11.45;;;2.03;;
59756;SDS011;45631;51.962;5.974;2023-05-16T04:06:10;11.10;;;2.55;;
59756;SDS011;45631;51.962;5.974;2023-05-16T04:08:38;11.43;;;2.03;;
59756;SDS011;45631;51.962;5.974;2023-05-16T04:11:06;12.18;;;2.00;;
59756;SDS011;45631;51.962;5.974;2023-05-16T04:13:34;12.20;;;2.10;;
59756;SDS011;45631;51.962;5.974;2023-05-16T04:16:04;10.68;;;2.40;;
59756;SDS011;45631;51.962;5.974;2023-05-16T04:18:33;16.45;;;2.13;;
59756;SDS011;45631;51.962;5.974;2023-05-16T04:21:01;11.65;;;2.20;;
59756;SDS011;45631;51.962;5.974;2023-05-16T04:23:30;10.35;;;2.03;;
59756;SDS011;45631;51.962;5.974;2023-05-16T04:25:58;12.80;;;2.30;;
59756;SDS011;45631;51.962;5.974;2023-05-16T04:28:27;9.10;;;1.77;;
59756;SDS011;45631;51.962;5.974;2023-05-16T04:30:55;8.02;;;1.67;;
59756;SDS011;45631;51.962;5.974;2023-05-16T04:33:25;12.60;;;1.98;;
59756;SDS011;45631;51.962;5.974;2023-05-16T04:35:53;13.25;;;2.40;;
59756;SDS011;45631;51.962;5.974;2023-05-16T04:38:23;12.48;;;1.73;;
59756;SDS011;45631;51.962;5.974;2023-05-16T04:40:54;12.13;;;2.20;;
59756;SDS011;45631;51.962;5.974;2023-05-16T04:43:22;11.07;;;1.92;;
59756;SDS011;45631;51.962;5.974;2023-05-16T04:45:50;11.48;;;2.30;;
59756;SDS011;45631;51.962;5.974;2023-05-16T04:48:19;10.88;;;2.25;;
59756;SDS011;45631;51.962;5.974;2023-05-16T04:50:49;9.80;;;1.85;;
59756;SDS011;45631;51.962;5.974;2023-05-16T04:53:17;9.65;;;2.10;;
59756;SDS011;45631;51.962;5.974;2023-05-16T04:55:46;11.07;;;2.05;;
59756;SDS011;45631;51.962;5.974;2023-05-16T04:58:14;9.63;;;2.15;;
59756;SDS011;45631;51.962;5.974;2023-05-16T05:00:42;9.10;;;2.15;;
59756;SDS011;45631;51.962;5.974;2023-05-16T05:03:10;12.73;;;2.00;;
59756;SDS011;45631;51.962;5.974;2023-05-16T05:05:38;9.77;;;2.25;;
59756;SDS011;45631;51.962;5.974;2023-05-16T05:08:08;13.25;;;2.33;;
59756;SDS011;45631;51.962;5.974;2023-05-16T05:10:36;13.15;;;2.35;;
59756;SDS011;45631;51.962;5.974;2023-05-16T05:13:04;10.02;;;2.17;;
59756;SDS011;45631;51.962;5.974;2023-05-16T05:15:32;13.80;;;2.45;;
59756;SDS011;45631;51.962;5.974;2023-05-16T05:18:01;10.48;;;2.17;;
59756;SDS011;45631;51.962;5.974;2023-05-16T05:20:30;13.07;;;2.40;;
59756;SDS011;45631;51.962;5.974;2023-05-16T05:22:58;10.30;;;2.10;;
59756;SDS011;45631;51.962;5.974;2023-05-16T05:25:27;13.65;;;2.67;;
59756;SDS011;45631;51.962;5.974;2023-05-16T05:27:55;9.98;;;2.30;;
59756;SDS011;45631;51.962;5.974;2023-05-16T05:30:23;11.10;;;1.95;;
59756;SDS011;45631;51.962;5.974;2023-05-16T05:32:51;11.00;;;2.00;;
59756;SDS011;45631;51.962;5.974;2023-05-16T05:35:20;12.15;;;2.58;;
59756;SDS011;45631;51.962;5.974;2023-05-16T05:37:48;11.52;;;1.80;;
59756;SDS011;45631;51.962;5.974;2023-05-16T05:40:16;11.80;;;2.17;;
59756;SDS011;45631;51.962;5.974;2023-05-16T05:42:46;12.73;;;1.85;;
59756;SDS011;45631;51.962;5.974;2023-05-16T05:45:14;12.45;;;2.65;;
59756;SDS011;45631;51.962;5.974;2023-05-16T05:47:42;14.63;;;2.90;;
59756;SDS011;45631;51.962;5.974;2023-05-16T05:50:11;10.63;;;1.80;;
59756;SDS011;45631;51.962;5.974;2023-05-16T05:52:40;11.00;;;2.30;;
59756;SDS011;45631;51.962;5.974;2023-05-16T05:55:08;7.55;;;2.08;;
59756;SDS011;45631;51.962;5.974;2023-05-16T05:57:39;10.27;;;1.85;;
59756;SDS011;45631;51.962;5.974;2023-05-16T06:00:09;9.85;;;1.70;;
59756;SDS011;45631;51.962;5.974;2023-05-16T06:02:38;7.75;;;1.60;;
59756;SDS011;45631;51.962;5.974;2023-05-16T06:05:07;8.18;;;1.63;;
59756;SDS011;45631;51.962;5.974;2023-05-16T06:07:36;10.38;;;2.17;;
59756;SDS011;45631;51.962;5.974;2023-05-16T06:10:04;13.57;;;2.97;;
59756;SDS011;45631;51.962;5.974;2023-05-16T06:12:34;14.15;;;2.20;;
59756;SDS011;45631;51.962;5.974;2023-05-16T06:15:02;10.57;;;1.90;;
59756;SDS011;45631;51.962;5.974;2023-05-16T06:17:32;9.43;;;1.88;;
59756;SDS011;45631;51.962;5.974;2023-05-16T06:20:00;12.95;;;2.47;;
59756;SDS011;45631;51.962;5.974;2023-05-16T06:22:29;7.93;;;1.90;;
59756;SDS011;45631;51.962;5.974;2023-05-16T06:24:57;11.00;;;1.80;;
59756;SDS011;45631;51.962;5.974;2023-05-16T06:27:25;11.15;;;2.15;;
59756;SDS011;45631;51.962;5.974;2023-05-16T06:29:54;10.45;;;2.33;;
59756;SDS011;45631;51.962;5.974;2023-05-16T06:32:22;13.32;;;2.65;;
59756;SDS011;45631;51.962;5.974;2023-05-16T06:34:52;10.02;;;1.92;;
59756;SDS011;45631;51.962;5.974;2023-05-16T06:37:20;12.70;;;1.77;;
59756;SDS011;45631;51.962;5.974;2023-05-16T06:39:49;9.13;;;1.95;;
59756;SDS011;45631;51.962;5.974;2023-05-16T06:42:17;9.82;;;2.60;;
59756;SDS011;45631;51.962;5.974;2023-05-16T06:44:45;11.30;;;2.20;;
59756;SDS011;45631;51.962;5.974;2023-05-16T06:47:14;13.88;;;1.80;;
59756;SDS011;45631;51.962;5.974;2023-05-16T06:49:42;12.13;;;2.33;;
59756;SDS011;45631;51.962;5.974;2023-05-16T06:52:12;10.93;;;1.80;;
59756;SDS011;45631;51.962;5.974;2023-05-16T06:54:40;12.27;;;1.98;;
59756;SDS011;45631;51.962;5.974;2023-05-16T06:57:08;9.13;;;1.80;;
59756;SDS011;45631;51.962;5.974;2023-05-16T06:59:36;9.38;;;2.40;;
59756;SDS011;45631;51.962;5.974;2023-05-16T07:02:04;10.55;;;1.95;;
59756;SDS011;45631;51.962;5.974;2023-05-16T07:04:33;10.13;;;1.92;;
59756;SDS011;45631;51.962;5.974;2023-05-16T07:07:03;8.65;;;1.70;;
59756;SDS011;45631;51.962;5.974;2023-05-16T07:09:34;8.13;;;1.92;;
59756;SDS011;45631;51.962;5.974;2023-05-16T07:12:03;9.13;;;1.73;;
59756;SDS011;45631;51.962;5.974;2023-05-16T07:14:34;11.53;;;2.00;;
59756;SDS011;45631;51.962;5.974;2023-05-16T07:17:03;13.48;;;1.95;;
59756;SDS011;45631;51.962;5.974;2023-05-16T07:19:31;11.65;;;1.80;;
59756;SDS011;45631;51.962;5.974;2023-05-16T07:21:59;12.98;;;1.98;;
59756;SDS011;45631;51.962;5.974;2023-05-16T07:24:28;13.18;;;1.92;;
59756;SDS011;45631;51.962;5.974;2023-05-16T07:26:57;8.27;;;1.55;;
59756;SDS011;45631;51.962;5.974;2023-05-16T07:29:25;7.07;;;1.42;;
59756;SDS011;45631;51.962;5.974;2023-05-16T07:31:55;9.23;;;1.45;;
59756;SDS011;45631;51.962;5.974;2023-05-16T07:34:24;9.77;;;1.85;;
59756;SDS011;45631;51.962;5.974;2023-05-16T07:36:52;7.93;;;1.65;;
59756;SDS011;45631;51.962;5.974;2023-05-16T07:39:20;7.68;;;1.30;;
59756;SDS011;45631;51.962;5.974;2023-05-16T07:41:48;10.23;;;1.83;;
59756;SDS011;45631;51.962;5.974;2023-05-16T07:44:17;10.07;;;1.80;;
59756;SDS011;45631;51.962;5.974;2023-05-16T07:46:46;6.15;;;1.70;;
59756;SDS011;45631;51.962;5.974;2023-05-16T07:49:14;9.32;;;1.10;;
59756;SDS011;45631;51.962;5.974;2023-05-16T07:51:42;7.65;;;1.20;;
59756;SDS011;45631;51.962;5.974;2023-05-16T07:54:10;5.50;;;0.73;;
59756;SDS011;45631;51.962;5.974;2023-05-16T07:56:38;4.57;;;0.90;;
59756;SDS011;45631;51.962;5.974;2023-05-16T07:59:07;5.03;;;1.08;;
59756;SDS011;45631;51.962;5.974;2023-05-16T08:01:37;6.50;;;1.13;;
59756;SDS011;45631;51.962;5.974;2023-05-16T08:04:05;5.65;;;1.40;;
59756;SDS011;45631;51.962;5.974;2023-05-16T08:06:33;4.35;;;1.15;;
59756;SDS011;45631;51.962;5.974;2023-05-16T08:09:02;7.03;;;1.25;;
59756;SDS011;45631;51.962;5.974;2023-05-16T08:11:31;5.47;;;1.17;;
59756;SDS011;45631;51.962;5.974;2023-05-16T08:13:59;4.47;;;1.00;;
59756;SDS011;45631;51.962;5.974;2023-05-16T08:16:30;7.28;;;1.05;;
59756;SDS011;45631;51.962;5.974;2023-05-16T08:19:00;6.18;;;0.98;;
59756;SDS011;45631;51.962;5.974;2023-05-16T08:21:29;7.13;;;1.13;;
59756;SDS011;45631;51.962;5.974;2023-05-16T08:23:57;6.68;;;0.90;;
59756;SDS011;45631;51.962;5.974;2023-05-16T08:26:25;8.05;;;1.05;;
59756;SDS011;45631;51.962;5.974;2023-05-16T08:28:53;6.13;;;0.95;;
59756;SDS011;45631;51.962;5.974;2023-05-16T08:31:22;5.65;;;1.17;;
59756;SDS011;45631;51.962;5.974;2023-05-16T08:33:50;3.70;;;0.85;;
59756;SDS011;45631;51.962;5.974;2023-05-16T08:36:19;6.35;;;0.90;;
59756;SDS011;45631;51.962;5.974;2023-05-16T08:38:50;7.85;;;1.10;;
59756;SDS011;45631;51.962;5.974;2023-05-16T08:41:19;4.57;;;0.85;;
59756;SDS011;45631;51.962;5.974;2023-05-16T08:43:47;4.78;;;0.90;;
59756;SDS011;45631;51.962;5.974;2023-05-16T08:46:16;3.42;;;0.80;;
59756;SDS011;45631;51.962;5.974;2023-05-16T08:48:52;3.80;;;0.52;;
59756;SDS011;45631;51.962;5.974;2023-05-16T08:51:22;4.90;;;0.80;;
59756;SDS011;45631;51.962;5.974;2023-05-16T08:53:53;2.53;;;0.55;;
59756;SDS011;45631;51.962;5.974;2023-05-16T08:56:26;3.28;;;0.70;;
59756;SDS011;45631;51.962;5.974;2023-05-16T08:58:54;5.07;;;0.98;;
59756;SDS011;45631;51.962;5.974;2023-05-16T09:01:23;5.00;;;0.68;;
59756;SDS011;45631;51.962;5.974;2023-05-16T09:03:52;4.15;;;0.93;;
59756;SDS011;45631;51.962;5.974;2023-05-16T09:06:23;3.72;;;0.77;;
59756;SDS011;45631;51.962;5.974;2023-05-16T09:08:51;4.78;;;0.90;;
59756;SDS011;45631;51.962;5.974;2023-05-16T09:11:20;3.78;;;0.70;;
59756;SDS011;45631;51.962;5.974;2023-05-16T09:13:48;5.18;;;1.00;;
59756;SDS011;45631;51.962;5.974;2023-05-16T09:16:19;2.15;;;0.70;;
59756;SDS011;45631;51.962;5.974;2023-05-16T09:18:52;5.10;;;0.90;;
59756;SDS011;45631;51.962;5.974;2023-05-16T09:21:25;3.65;;;0.90;;
59756;SDS011;45631;51.962;5.974;2023-05-16T09:23:55;5.38;;;1.05;;
59756;SDS011;45631;51.962;5.974;2023-05-16T09:26:23;6.07;;;0.93;;
59756;SDS011;45631;51.962;5.974;2023-05-16T09:28:52;7.43;;;1.08;;
59756;SDS011;45631;51.962;5.974;2023-05-16T09:31:22;6.63;;;1.42;;
59756;SDS011;45631;51.962;5.974;2023-05-16T09:33:52;5.55;;;1.17;;
59756;SDS011;45631;51.962;5.974;2023-05-16T09:36:25;6.00;;;1.02;;
59756;SDS011;45631;51.962;5.974;2023-05-16T09:38:54;4.70;;;0.70;;
59756;SDS011;45631;51.962;5.974;2023-05-16T09:41:22;4.78;;;0.80;;
59756;SDS011;45631;51.962;5.974;2023-05-16T09:43:50;1.55;;;0.60;;
59756;SDS011;45631;51.962;5.974;2023-05-16T09:46:18;3.03;;;0.75;;
59756;SDS011;45631;51.962;5.974;2023-05-16T09:48:52;4.03;;;0.63;;
59756;SDS011;45631;51.962;5.974;2023-05-16T09:51:21;4.00;;;0.80;;
59756;SDS011;45631;51.962;5.974;2023-05-16T09:53:51;5.40;;;1.00;;
59756;SDS011;45631;51.962;5.974;2023-05-16T09:56:19;4.57;;;0.85;;
59756;SDS011;45631;51.962;5.974;2023-05-16T09:58:50;4.18;;;0.82;;
59756;SDS011;45631;51.962;5.974;2023-05-16T10:01:19;4.53;;;1.23;;
59756;SDS011;45631;51.962;5.974;2023-05-16T10:03:47;4.25;;;0.80;;
59756;SDS011;45631;51.962;5.974;2023-05-16T10:06:15;4.05;;;0.90;;
59756;SDS011;45631;51.962;5.974;2023-05-16T10:08:45;4.93;;;0.82;;
59756;SDS011;45631;51.962;5.974;2023-05-16T10:11:15;3.47;;;0.93;;
59756;SDS011;45631;51.962;5.974;2023-05-16T10:13:45;4.70;;;1.08;;
59756;SDS011;45631;51.962;5.974;2023-05-16T10:16:18;5.68;;;1.70;;
59756;SDS011;45631;51.962;5.974;2023-05-16T10:18:49;5.15;;;1.10;;
59756;SDS011;45631;51.962;5.974;2023-05-16T10:21:18;7.47;;;1.20;;
59756;SDS011;45631;51.962;5.974;2023-05-16T10:23:53;5.70;;;1.52;;
59756;SDS011;45631;51.962;5.974;2023-05-16T10:26:27;5.50;;;1.10;;
59756;SDS011;45631;51.962;5.974;2023-05-16T10:28:56;4.35;;;1.02;;
59756;SDS011;45631;51.962;5.974;2023-05-16T10:31:25;5.05;;;1.10;;
59756;SDS011;45631;51.962;5.974;2023-05-16T10:33:53;3.72;;;1.00;;
59756;SDS011;45631;51.962;5.974;2023-05-16T10:36:22;5.47;;;1.00;;
59756;SDS011;45631;51.962;5.974;2023-05-16T10:38:51;4.90;;;0.90;;
59756;SDS011;45631;51.962;5.974;2023-05-16T10:41:20;4.22;;;1.05;;
59756;SDS011;45631;51.962;5.974;2023-05-16T10:43:56;5.35;;;1.20;;
59756;SDS011;45631;51.962;5.974;2023-05-16T10:46:25;6.25;;;0.98;;
59756;SDS011;45631;51.962;5.974;2023-05-16T10:48:54;5.03;;;1.20;;
59756;SDS011;45631;51.962;5.974;2023-05-16T10:54:06;6.15;;;1.20;;
59756;SDS011;45631;51.962;5.974;2023-05-16T10:56:36;6.32;;;1.17;;
59756;SDS011;45631;51.962;5.974;2023-05-16T10:59:08;6.32;;;0.90;;
59756;SDS011;45631;51.962;5.974;2023-05-16T11:01:51;7.05;;;1.13;;
59756;SDS011;45631;51.962;5.974;2023-05-16T11:04:19;7.03;;;1.00;;
59756;SDS011;45631;51.962;5.974;2023-05-16T11:06:51;5.90;;;0.98;;
59756;SDS011;45631;51.962;5.974;2023-05-16T11:09:20;6.57;;;1.13;;
59756;SDS011;45631;51.962;5.974;2023-05-16T11:11:58;6.00;;;1.02;;
59756;SDS011;45631;51.962;5.974;2023-05-16T11:14:38;4.05;;;0.73;;
59756;SDS011;45631;51.962;5.974;2023-05-16T11:17:09;5.05;;;1.10;;
59756;SDS011;45631;51.962;5.974;2023-05-16T11:19:40;4.45;;;0.95;;
59756;SDS011;45631;51.962;5.974;2023-05-16T11:22:10;6.35;;;1.50;;
59756;SDS011;45631;51.962;5.974;2023-05-16T11:24:50;5.15;;;1.05;;
59756;SDS011;45631;51.962;5.974;2023-05-16T11:27:20;3.67;;;1.00;;
59756;SDS011;45631;51.962;5.974;2023-05-16T11:29:51;3.80;;;0.85;;
59756;SDS011;45631;51.962;5.974;2023-05-16T11:32:22;5.40;;;1.00;;
59756;SDS011;45631;51.962;5.974;2023-05-16T11:34:51;5.63;;;1.48;;
59756;SDS011;45631;51.962;5.974;2023-05-16T11:37:20;6.25;;;1.85;;
59756;SDS011;45631;51.962;5.974;2023-05-16T11:39:48;5.05;;;1.58;;
59756;SDS011;45631;51.962;5.974;2023-05-16T11:42:17;8.77;;;1.55;;
59756;SDS011;45631;51.962;5.974;2023-05-16T11:44:45;6.63;;;1.00;;
59756;SDS011;45631;51.962;5.974;2023-05-16T11:47:15;5.13;;;0.90;;
59756;SDS011;45631;51.962;5.974;2023-05-16T11:49:43;7.60;;;0.80;;
59756;SDS011;45631;51.962;5.974;2023-05-16T11:52:14;2.63;;;0.82;;
59756;SDS011;45631;51.962;5.974;2023-05-16T11:54:43;5.82;;;1.35;;
59756;SDS011;45631;51.962;5.974;2023-05-16T11:57:12;3.60;;;0.95;;
59756;SDS011;45631;51.962;5.974;2023-05-16T11:59:40;4.88;;;0.98;;
59756;SDS011;45631;51.962;5.974;2023-05-16T12:02:09;4.75;;;1.05;;
59756;SDS011;45631;51.962;5.974;2023-05-16T12:04:38;4.20;;;1.23;;
59756;SDS011;45631;51.962;5.974;2023-05-16T12:07:07;5.15;;;1.10;;
59756;SDS011;45631;51.962;5.974;2023-05-16T12:09:35;5.45;;;1.02;;
59756;SDS011;45631;51.962;5.974;2023-05-16T12:12:04;6.70;;;1.30;;
59756;SDS011;45631;51.962;5.974;2023-05-16T12:14:34;4.00;;;1.30;;
59756;SDS011;45631;51.962;5.974;2023-05-16T12:17:02;3.92;;;1.10;;
59756;SDS011;45631;51.962;5.974;2023-05-16T12:19:31;4.47;;;1.10;;
59756;SDS011;45631;51.962;5.974;2023-05-16T12:22:01;4.47;;;1.30;;
59756;SDS011;45631;51.962;5.974;2023-05-16T12:24:29;6.70;;;1.10;;
59756;SDS011;45631;51.962;5.974;2023-05-16T12:26:57;6.50;;;1.40;;
59756;SDS011;45631;51.962;5.974;2023-05-16T12:29:26;4.70;;;1.40;;
59756;SDS011;45631;51.962;5.974;2023-05-16T12:31:54;4.75;;;1.25;;
59756;SDS011;45631;51.962;5.974;2023-05-16T12:34:22;4.38;;;1.33;;
59756;SDS011;45631;51.962;5.974;2023-05-16T12:36:51;5.50;;;1.30;;
59756;SDS011;45631;51.962;5.974;2023-05-16T12:39:21;5.97;;;1.30;;
59756;SDS011;45631;51.962;5.974;2023-05-16T12:41:49;5.93;;;1.33;;
59756;SDS011;45631;51.962;5.974;2023-05-16T12:44:18;7.20;;;1.58;;
59756;SDS011;45631;51.962;5.974;2023-05-16T12:46:48;4.22;;;1.10;;
59756;SDS011;45631;51.962;5.974;2023-05-16T12:49:18;6.65;;;1.10;;
59756;SDS011;45631;51.962;5.974;2023-05-16T12:51:48;6.20;;;1.30;;
59756;SDS011;45631;51.962;5.974;2023-05-16T12:54:18;6.53;;;1.33;;
59756;SDS011;45631;51.962;5.974;2023-05-16T12:56:52;4.78;;;1.10;;
59756;SDS011;45631;51.962;5.974;2023-05-16T12:59:20;4.20;;;0.93;;
59756;SDS011;45631;51.962;5.974;2023-05-16T13:01:48;5.47;;;0.90;;
59756;SDS011;45631;51.962;5.974;2023-05-16T13:04:17;6.97;;;1.17;;
59756;SDS011;45631;51.962;5.974;2023-05-16T13:06:46;6.97;;;1.33;;
59756;SDS011;45631;51.962;5.974;2023-05-16T13:09:25;4.95;;;1.17;;
59756;SDS011;45631;51.962;5.974;2023-05-16T13:14:27;5.47;;;0.93;;
59756;SDS011;45631;51.962;5.974;2023-05-16T13:16:57;5.40;;;1.05;;
59756;SDS011;45631;51.962;5.974;2023-05-16T13:19:25;6.50;;;1.00;;
59756;SDS011;45631;51.962;5.974;2023-05-16T13:21:53;6.57;;;1.35;;
59756;SDS011;45631;51.962;5.974;2023-05-16T13:24:22;4.10;;;0.82;;
59756;SDS011;45631;51.962;5.974;2023-05-16T13:26:50;7.15;;;1.15;;
59756;SDS011;45631;51.962;5.974;2023-05-16T13:29:20;4.10;;;0.90;;
59756;SDS011;45631;51.962;5.974;2023-05-16T13:31:48;3.90;;;1.00;;
59756;SDS011;45631;51.962;5.974;2023-05-16T13:34:16;7.13;;;1.10;;
59756;SDS011;45631;51.962;5.974;2023-05-16T13:36:44;3.38;;;1.00;;
59756;SDS011;45631;51.962;5.974;2023-05-16T13:39:20;9.25;;;1.20;;
59756;SDS011;45631;51.962;5.974;2023-05-16T13:41:49;4.32;;;1.50;;
59756;SDS011;45631;51.962;5.974;2023-05-16T13:44:17;3.67;;;1.25;;
59756;SDS011;45631;51.962;5.974;2023-05-16T13:46:48;5.90;;;1.50;;
59756;SDS011;45631;51.962;5.974;2023-05-16T13:49:16;3.67;;;1.10;;
59756;SDS011;45631;51.962;5.974;2023-05-16T13:51:44;4.85;;;1.20;;
59756;SDS011;45631;51.962;5.974;2023-05-16T13:54:13;6.22;;;1.33;;
59756;SDS011;45631;51.962;5.974;2023-05-16T13:56:41;6.10;;;1.38;;
59756;SDS011;45631;51.962;5.974;2023-05-16T13:59:09;4.97;;;1.10;;
59756;SDS011;45631;51.962;5.974;2023-05-16T14:01:50;6.75;;;1.30;;
59756;SDS011;45631;51.962;5.974;2023-05-16T14:04:19;6.80;;;1.23;;
59756;SDS011;45631;51.962;5.974;2023-05-16T14:06:47;4.57;;;1.10;;
59756;SDS011;45631;51.962;5.974;2023-05-16T14:09:15;4.78;;;1.20;;
59756;SDS011;45631;51.962;5.974;2023-05-16T14:11:44;8.30;;;1.65;;
59756;SDS011;45631;51.962;5.974;2023-05-16T14:14:12;5.90;;;1.50;;
59756;SDS011;45631;51.962;5.974;2023-05-16T14:16:40;6.95;;;1.50;;
59756;SDS011;45631;51.962;5.974;2023-05-16T14:19:12;5.85;;;1.27;;
59756;SDS011;45631;51.962;5.974;2023-05-16T14:21:44;4.82;;;1.33;;
59756;SDS011;45631;51.962;5.974;2023-05-16T14:24:14;8.80;;;1.60;;
59756;SDS011;45631;51.962;5.974;2023-05-16T14:26:42;5.97;;;1.35;;
59756;SDS011;45631;51.962;5.974;2023-05-16T14:29:11;6.30;;;1.27;;
59756;SDS011;45631;51.962;5.974;2023-05-16T14:31:41;7.35;;;1.33;;
59756;SDS011;45631;51.962;5.974;2023-05-16T14:34:10;5.55;;;1.30;;
59756;SDS011;45631;51.962;5.974;2023-05-16T14:36:39;4.75;;;1.23;;
59756;SDS011;45631;51.962;5.974;2023-05-16T14:39:07;8.95;;;1.50;;
59756;SDS011;45631;51.962;5.974;2023-05-16T14:41:35;7.35;;;1.50;;
59756;SDS011;45631;51.962;5.974;2023-05-16T14:44:04;6.72;;;1.13;;
59756;SDS011;45631;51.962;5.974;2023-05-16T14:46:32;6.15;;;1.63;;
59756;SDS011;45631;51.962;5.974;2023-05-16T14:49:01;4.13;;;1.20;;
59756;SDS011;45631;51.962;5.974;2023-05-16T14:51:29;11.77;;;1.63;;
59756;SDS011;45631;51.962;5.974;2023-05-16T14:53:59;6.30;;;1.40;;
59756;SDS011;45631;51.962;5.974;2023-05-16T14:56:27;7.00;;;1.52;;
59756;SDS011;45631;51.962;5.974;2023-05-16T14:58:55;6.82;;;1.10;;
59756;SDS011;45631;51.962;5.974;2023-05-16T15:01:23;3.67;;;1.10;;